Limerick, Maine
Current Conditions -  °F | °C
As of 7:35 AM on Friday 24 Oct 2014 (Local Time) from KSFM Reporting Station
Overcast Overcast  
Wind Chill: 41°   Ceiling: 900
Heat Index: 46°   Visibility: 3mi
Dew Point: 43°   Wind: 12mph
Humidity: 87%   Direction: 340°NNW
Pressure: 29.69"   Gusts: NA
Location:  43.69°N, 70.79°W
Report Text: KSFM 241135Z AUTO 34010KT 3SM BKN009 OVC017 08/06 A2969 RMK AO1 P0002
Loading
Personal Weather Stations






























Interactive Weather Map
Tropical Storm Tracking
New forecast layout! Learn more

10-Day Weather Forecast

Advertisements
Track Severe Weather on mobile